createdAt,value
2023-03-11T00:01:00.225Z,8.17
2023-03-11T00:03:30.485Z,7.66
2023-03-11T00:06:02.594Z,7.92
2023-03-11T00:08:31.926Z,7.79
2023-03-11T00:11:01.958Z,7.66
2023-03-11T00:13:31.534Z,7.58
2023-03-11T00:16:02.048Z,7.86
2023-03-11T00:18:32.369Z,7.72
2023-03-11T00:21:01.183Z,7.82
2023-03-11T00:23:30.646Z,7.69
2023-03-11T00:26:03.194Z,7.54
2023-03-11T00:28:34.266Z,7.91
2023-03-11T00:31:04.797Z,7.83
2023-03-11T00:33:35.105Z,7.70
2023-03-11T00:36:04.018Z,7.80
2023-03-11T00:38:32.926Z,7.65
2023-03-11T00:41:02.340Z,8.04
2023-03-11T00:43:33.515Z,7.63
2023-03-11T00:46:02.448Z,7.64
2023-03-11T00:48:31.331Z,7.33
2023-03-11T00:51:01.680Z,7.53
2023-03-11T00:53:30.572Z,7.76
2023-03-11T00:56:01.497Z,7.35
2023-03-11T00:58:30.850Z,7.41
2023-03-11T01:00:59.736Z,7.19
2023-03-11T01:03:28.732Z,7.30
2023-03-11T01:05:57.589Z,7.03
2023-03-11T01:08:29.625Z,7.06
2023-03-11T01:10:58.494Z,6.82
2023-03-11T01:13:28.692Z,6.83
2023-03-11T01:15:57.688Z,7.47
2023-03-11T01:18:27.078Z,7.00
2023-03-11T01:20:56.089Z,7.26
2023-03-11T01:23:24.907Z,7.15
2023-03-11T01:25:54.786Z,7.16
2023-03-11T01:28:23.640Z,6.71
2023-03-11T01:30:53.064Z,6.71
2023-03-11T01:33:23.065Z,6.93
2023-03-11T01:35:52.013Z,6.54
2023-03-11T01:38:21.037Z,6.68
2023-03-11T01:40:51.721Z,6.63
2023-03-11T01:43:51.191Z,6.98
2023-03-11T01:46:25.074Z,6.53
2023-03-11T01:48:55.212Z,6.52
2023-03-11T01:51:29.409Z,6.62
2023-03-11T01:53:59.542Z,6.48
2023-03-11T01:56:28.859Z,6.33
2023-03-11T01:58:59.669Z,6.68
2023-03-11T02:01:28.641Z,6.81
2023-03-11T02:03:58.358Z,6.58
2023-03-11T02:06:27.821Z,6.46
2023-03-11T02:08:57.106Z,6.33
2023-03-11T02:11:28.996Z,6.34
2023-03-11T02:14:01.566Z,6.49
2023-03-11T02:16:30.790Z,6.50
2023-03-11T02:19:02.458Z,6.23
2023-03-11T02:21:33.100Z,6.75
2023-03-11T02:24:06.910Z,6.74
2023-03-11T02:26:39.293Z,6.29
2023-03-11T02:29:11.175Z,6.30
2023-03-11T02:31:42.529Z,6.25
2023-03-11T02:34:20.304Z,6.06
2023-03-11T02:36:50.837Z,5.79
2023-03-11T02:39:31.367Z,5.94
2023-03-11T02:42:02.478Z,6.18
2023-03-11T02:44:33.207Z,6.61
2023-03-11T02:47:02.454Z,6.50
2023-03-11T02:49:32.047Z,6.48
2023-03-11T02:52:01.363Z,6.71
2023-03-11T02:54:32.014Z,6.55
2023-03-11T02:57:01.092Z,6.48
2023-03-11T02:59:30.131Z,6.71
2023-03-11T03:02:02.095Z,6.45
2023-03-11T03:04:31.625Z,6.50
2023-03-11T03:07:01.599Z,6.55
2023-03-11T03:09:30.831Z,6.62
2023-03-11T03:11:59.949Z,6.56
2023-03-11T03:14:29.742Z,6.38
2023-03-11T03:16:59.025Z,6.48
2023-03-11T03:19:29.320Z,6.12
2023-03-11T03:21:58.286Z,5.94
2023-03-11T03:24:27.290Z,6.09
2023-03-11T03:26:56.355Z,6.05
2023-03-11T03:29:25.429Z,6.09
2023-03-11T03:31:55.025Z,6.14
2023-03-11T03:34:24.089Z,6.14
2023-03-11T03:36:55.405Z,6.24
2023-03-11T03:39:25.179Z,6.32
2023-03-11T03:41:54.632Z,6.38
2023-03-11T03:44:25.729Z,6.34
2023-03-11T03:46:54.559Z,6.32
2023-03-11T03:49:23.553Z,6.20
2023-03-11T03:51:54.209Z,6.15
2023-03-11T03:54:31.374Z,6.59
2023-03-11T03:57:00.867Z,6.54
2023-03-11T03:59:31.976Z,6.53
2023-03-11T04:02:02.266Z,6.87
2023-03-11T04:04:32.245Z,6.78
2023-03-11T04:07:04.634Z,6.79
2023-03-11T04:09:34.399Z,7.06
2023-03-11T04:12:03.659Z,7.30
2023-03-11T04:14:35.457Z,7.04
2023-03-11T04:17:04.668Z,7.30
2023-03-11T04:19:33.944Z,7.22
2023-03-11T04:22:04.560Z,7.41
2023-03-11T04:24:33.853Z,7.44
2023-03-11T04:27:04.580Z,7.62
2023-03-11T04:29:35.173Z,7.72
2023-03-11T04:32:04.956Z,7.52
2023-03-11T04:34:35.226Z,7.26
2023-03-11T04:37:05.904Z,7.06
2023-03-11T04:39:37.269Z,6.86
2023-03-11T04:42:06.750Z,7.04
2023-03-11T04:44:36.789Z,7.12
2023-03-11T04:47:07.469Z,7.19
2023-03-11T04:49:37.242Z,7.36
2023-03-11T04:52:08.090Z,7.38
2023-03-11T04:54:37.809Z,7.25
2023-03-11T04:57:07.864Z,6.97
2023-03-11T04:59:37.975Z,6.85
2023-03-11T05:02:07.393Z,6.76
2023-03-11T05:04:36.295Z,6.95
2023-03-11T05:07:05.494Z,6.97
2023-03-11T05:09:36.426Z,7.35
2023-03-11T05:12:06.125Z,7.37
2023-03-11T05:14:37.678Z,7.20
2023-03-11T05:17:06.683Z,7.42
2023-03-11T05:19:35.996Z,7.49
2023-03-11T05:22:17.682Z,7.01
2023-03-11T05:24:48.868Z,7.09
2023-03-11T05:27:19.970Z,7.50
2023-03-11T05:29:53.356Z,7.61
2023-03-11T05:32:23.563Z,7.51
2023-03-11T05:34:53.764Z,7.21
2023-03-11T05:37:23.004Z,7.15
2023-03-11T05:39:55.009Z,7.62
2023-03-11T05:42:24.856Z,7.48
2023-03-11T05:44:56.218Z,7.74
2023-03-11T05:47:26.426Z,7.97
2023-03-11T05:49:55.813Z,8.14
2023-03-11T05:52:25.421Z,8.12
2023-03-11T05:54:55.963Z,7.87
2023-03-11T05:57:28.581Z,7.57
2023-03-11T05:59:59.553Z,7.99
2023-03-11T06:02:28.743Z,8.11
2023-03-11T06:04:57.336Z,8.04
2023-03-11T06:07:26.343Z,8.13
2023-03-11T06:09:56.780Z,7.98
2023-03-11T06:12:26.018Z,8.06
2023-03-11T06:15:10.685Z,8.05
2023-03-11T06:17:41.090Z,7.87
2023-03-11T06:20:12.150Z,8.19
2023-03-11T06:22:42.154Z,8.16
2023-03-11T06:25:14.101Z,8.30
2023-03-11T06:27:46.235Z,8.05
2023-03-11T06:30:15.200Z,8.28
2023-03-11T06:32:52.624Z,8.27
2023-03-11T06:35:22.268Z,8.45
2023-03-11T06:37:51.618Z,8.25
2023-03-11T06:40:22.140Z,8.40
2023-03-11T06:42:51.174Z,8.65
2023-03-11T06:45:21.879Z,8.84
2023-03-11T06:47:52.315Z,8.85
2023-03-11T06:50:24.226Z,8.39
2023-03-11T06:52:55.210Z,8.34
2023-03-11T06:55:26.866Z,8.69
2023-03-11T06:57:55.993Z,8.81
2023-03-11T07:00:25.289Z,8.57
2023-03-11T07:02:58.837Z,8.82
2023-03-11T07:05:28.206Z,8.88
2023-03-11T07:08:01.945Z,8.64
2023-03-11T07:10:32.871Z,8.69
2023-03-11T07:13:01.859Z,8.55
2023-03-11T07:15:32.117Z,8.47
2023-03-11T07:18:01.033Z,8.77
2023-03-11T07:20:33.355Z,8.85
2023-03-11T07:23:02.249Z,8.62
2023-03-11T07:25:30.789Z,8.51
2023-03-11T07:28:01.110Z,8.64
2023-03-11T07:30:29.862Z,8.70
2023-03-11T07:32:58.851Z,8.73
2023-03-11T07:35:27.794Z,8.46
2023-03-11T07:37:56.722Z,8.33
2023-03-11T07:40:25.728Z,8.80
2023-03-11T07:42:54.500Z,8.33
2023-03-11T07:45:24.847Z,8.07
2023-03-11T07:47:54.022Z,8.32
2023-03-11T07:50:23.426Z,7.92
2023-03-11T07:52:51.979Z,8.24
2023-03-11T07:55:21.065Z,7.79
2023-03-11T07:57:51.734Z,7.66
2023-03-11T08:00:21.666Z,7.14
2023-03-11T08:02:52.299Z,7.34
2023-03-11T08:05:21.350Z,7.19
2023-03-11T08:07:49.952Z,7.30
2023-03-11T08:10:19.221Z,7.71
2023-03-11T08:12:48.417Z,8.01
2023-03-11T08:15:17.468Z,7.76
2023-03-11T08:17:46.362Z,7.80
2023-03-11T08:20:16.931Z,8.42
2023-03-11T08:22:57.343Z,7.72
2023-03-11T08:25:27.458Z,7.20
2023-03-11T08:27:56.848Z,7.36
2023-03-11T08:30:26.027Z,7.19
2023-03-11T08:32:54.989Z,6.58
2023-03-11T08:35:26.354Z,6.75
2023-03-11T08:37:55.188Z,6.82
2023-03-11T08:40:24.813Z,6.79
2023-03-11T08:42:53.931Z,7.33
2023-03-11T08:45:22.794Z,7.10
2023-03-11T08:47:51.688Z,7.33
2023-03-11T08:50:21.467Z,6.79
2023-03-11T08:52:51.407Z,6.70
2023-03-11T08:55:25.170Z,6.81
2023-03-11T08:57:54.101Z,6.75
2023-03-11T09:00:24.020Z,6.97
2023-03-11T09:02:52.991Z,7.13
2023-03-11T09:05:22.196Z,6.71
2023-03-11T09:07:52.478Z,6.92
2023-03-11T09:10:21.400Z,7.01
2023-03-11T09:12:50.250Z,7.08
2023-03-11T09:15:19.336Z,7.17
2023-03-11T09:17:49.225Z,7.22
2023-03-11T09:20:18.190Z,6.80
2023-03-11T09:22:46.646Z,6.94
2023-03-11T09:25:17.225Z,6.72
2023-03-11T09:27:46.130Z,6.88
2023-03-11T09:30:15.615Z,7.32
2023-03-11T09:32:44.605Z,7.38
2023-03-11T09:35:13.515Z,7.03
2023-03-11T09:37:42.227Z,7.20
2023-03-11T09:40:15.140Z,7.03
2023-03-11T09:42:50.698Z,6.47
2023-03-11T09:45:21.502Z,5.94
2023-03-11T09:48:04.356Z,6.02
2023-03-11T09:50:35.014Z,5.26
2023-03-11T09:53:21.044Z,5.00
2023-03-11T09:55:51.174Z,4.83
2023-03-11T09:58:25.421Z,4.48
2023-03-11T10:00:54.565Z,4.85
2023-03-11T10:03:28.862Z,4.42
2023-03-11T10:06:04.934Z,4.42
2023-03-11T10:08:36.306Z,4.57
2023-03-11T10:11:13.018Z,4.19
2023-03-11T10:13:47.632Z,4.34
2023-03-11T10:16:21.816Z,3.80
2023-03-11T10:18:55.694Z,3.84
2023-03-11T10:21:34.946Z,4.32
2023-03-11T10:24:16.842Z,3.73
2023-03-11T10:26:48.529Z,3.94
2023-03-11T10:29:22.103Z,3.67
2023-03-11T10:31:53.088Z,3.51
2023-03-11T10:34:25.973Z,3.48
2023-03-11T10:37:00.348Z,3.70
2023-03-11T10:39:29.458Z,3.40
2023-03-11T10:42:00.979Z,3.58
2023-03-11T10:44:34.501Z,3.55
2023-03-11T10:47:03.792Z,3.40
2023-03-11T10:49:32.347Z,3.72
2023-03-11T10:52:01.221Z,3.36
2023-03-11T10:54:32.296Z,3.41
2023-03-11T10:57:02.701Z,2.77
2023-03-11T10:59:37.603Z,3.13
2023-03-11T11:02:27.316Z,2.56
2023-03-11T11:05:27.329Z,2.73
2023-03-11T11:08:06.200Z,2.78
2023-03-11T11:10:36.138Z,2.77
2023-03-11T11:13:18.467Z,2.68
2023-03-11T11:15:57.023Z,2.40
2023-03-11T11:18:27.924Z,2.56
2023-03-11T11:21:02.217Z,2.11
2023-03-11T11:23:43.340Z,2.61
2023-03-11T11:26:18.687Z,3.19
2023-03-11T11:28:47.397Z,2.99
2023-03-11T11:31:25.221Z,3.03
2023-03-11T11:33:55.450Z,3.01
2023-03-11T11:36:25.464Z,2.86
2023-03-11T11:38:55.370Z,2.68
2023-03-11T11:41:25.932Z,2.55
2023-03-11T11:43:56.035Z,2.78
2023-03-11T11:46:31.454Z,2.77
2023-03-11T11:49:07.456Z,2.89
2023-03-11T11:51:40.929Z,2.42
2023-03-11T11:54:17.615Z,2.27
2023-03-11T11:56:47.083Z,2.25
2023-03-11T11:59:19.218Z,2.47
2023-03-11T12:01:58.373Z,2.67
2023-03-11T12:04:59.443Z,2.26
2023-03-11T12:07:46.833Z,2.33
2023-03-11T12:10:24.026Z,2.17
2023-03-11T12:13:29.609Z,2.48
2023-03-11T12:16:03.463Z,2.40
2023-03-11T12:18:37.141Z,2.16
2023-03-11T12:21:13.657Z,2.82
2023-03-11T12:23:49.827Z,2.39
2023-03-11T12:26:21.975Z,2.50
2023-03-11T12:28:54.466Z,2.45
2023-03-11T12:31:24.846Z,2.21
2023-03-11T12:33:59.118Z,2.61
2023-03-11T12:36:32.482Z,2.57
2023-03-11T12:39:01.941Z,1.86
2023-03-11T12:41:37.040Z,2.03
2023-03-11T12:44:22.604Z,2.09
2023-03-11T12:47:21.897Z,1.97
2023-03-11T12:49:54.963Z,1.90
2023-03-11T12:52:28.981Z,1.89
2023-03-11T12:55:30.856Z,1.92
2023-03-11T12:58:28.047Z,2.11
2023-03-11T13:01:16.701Z,2.18
2023-03-11T13:03:59.599Z,1.68
2023-03-11T13:06:43.845Z,1.44
2023-03-11T13:09:15.968Z,1.37
2023-03-11T13:11:46.908Z,1.99
2023-03-11T13:14:28.772Z,1.61
2023-03-11T13:16:58.164Z,1.80
2023-03-11T13:19:55.338Z,1.60
2023-03-11T13:22:46.253Z,1.55
2023-03-11T13:25:32.963Z,1.58
2023-03-11T13:28:24.321Z,1.56
2023-03-11T13:30:57.041Z,1.02
2023-03-11T13:33:36.798Z,1.06
2023-03-11T13:36:12.176Z,0.87
2023-03-11T13:38:52.436Z,0.79
2023-03-11T13:41:26.193Z,0.98
2023-03-11T13:43:57.045Z,1.29
2023-03-11T13:46:30.278Z,0.95
2023-03-11T13:49:04.769Z,1.44
2023-03-11T13:51:38.678Z,1.19
2023-03-11T13:54:25.388Z,1.04
2023-03-11T13:56:58.530Z,0.92
2023-03-11T13:59:28.629Z,0.86
2023-03-11T14:01:59.471Z,1.39
2023-03-11T14:04:30.086Z,0.81
2023-03-11T14:06:59.305Z,1.09
2023-03-11T14:09:30.205Z,1.01
2023-03-11T14:12:07.844Z,1.21
2023-03-11T14:14:49.514Z,0.73
2023-03-11T14:17:20.286Z,0.78
2023-03-11T14:20:07.064Z,0.85
2023-03-11T14:22:36.192Z,0.86
2023-03-11T14:25:09.982Z,1.00
2023-03-11T14:27:39.801Z,0.60
2023-03-11T14:30:10.138Z,0.86
2023-03-11T14:32:39.025Z,1.07
2023-03-11T14:35:20.982Z,1.08
2023-03-11T14:37:50.104Z,1.10
2023-03-11T14:40:27.292Z,1.09
2023-03-11T14:42:57.575Z,1.27
2023-03-11T14:45:28.177Z,0.87
2023-03-11T14:47:59.444Z,1.29
2023-03-11T14:50:30.694Z,1.17
2023-03-11T14:53:02.987Z,1.82
2023-03-11T14:55:40.341Z,1.59
2023-03-11T14:58:14.443Z,1.59
2023-03-11T15:00:47.341Z,1.57
2023-03-11T15:03:23.301Z,1.45
2023-03-11T15:05:53.997Z,0.74
2023-03-11T15:08:24.357Z,1.35
2023-03-11T15:11:20.488Z,1.54
2023-03-11T15:13:51.346Z,1.61
2023-03-11T15:16:25.742Z,1.25
2023-03-11T15:18:55.752Z,1.65
2023-03-11T15:21:25.408Z,1.50
2023-03-11T15:23:58.990Z,1.57
2023-03-11T15:26:30.514Z,1.40
2023-03-11T15:29:00.711Z,1.16
2023-03-11T15:31:35.350Z,1.58
2023-03-11T15:34:25.497Z,1.73
2023-03-11T15:36:58.501Z,1.83
2023-03-11T15:39:30.114Z,1.87
2023-03-11T15:42:04.926Z,1.48
2023-03-11T15:44:36.175Z,1.48
2023-03-11T15:47:06.448Z,1.68
2023-03-11T15:49:35.380Z,1.28
2023-03-11T15:52:04.363Z,0.98
2023-03-11T15:54:33.217Z,1.72
2023-03-11T15:57:07.435Z,1.52
2023-03-11T15:59:38.781Z,1.49
2023-03-11T16:02:17.337Z,1.29
2023-03-11T16:04:46.072Z,1.37
2023-03-11T16:07:14.920Z,1.42
2023-03-11T16:09:43.872Z,1.55
2023-03-11T16:12:18.801Z,1.43
2023-03-11T16:14:48.428Z,1.38
2023-03-11T16:17:19.120Z,1.28
2023-03-11T16:19:49.636Z,1.26
2023-03-11T16:22:20.494Z,0.95
2023-03-11T16:24:51.099Z,0.61
2023-03-11T16:27:21.495Z,1.27
2023-03-11T16:29:50.670Z,0.46
2023-03-11T16:32:19.723Z,1.02
2023-03-11T16:34:48.377Z,1.08
2023-03-11T16:37:20.759Z,1.00
2023-03-11T16:39:50.027Z,1.17
2023-03-11T16:42:24.820Z,1.20
2023-03-11T16:44:53.815Z,0.54
2023-03-11T16:47:22.622Z,0.97
2023-03-11T16:49:53.682Z,0.76
2023-03-11T16:52:23.508Z,1.10
2023-03-11T16:54:52.517Z,1.05
2023-03-11T16:57:21.847Z,0.57
2023-03-11T16:59:53.289Z,0.43
2023-03-11T17:02:24.418Z,0.26
2023-03-11T17:04:53.277Z,0.63
2023-03-11T17:07:24.351Z,0.25
2023-03-11T17:09:53.260Z,0.48
2023-03-11T17:12:23.196Z,0.63
2023-03-11T17:14:54.220Z,0.45
2023-03-11T17:17:23.608Z,0.01
2023-03-11T17:19:52.119Z,0.45
2023-03-11T17:22:21.323Z,0.44
2023-03-11T17:24:50.260Z,0.25
2023-03-11T17:27:19.143Z,0.39
2023-03-11T17:29:48.136Z,0.42
2023-03-11T17:32:20.122Z,0.27
2023-03-11T17:34:48.809Z,0.40
2023-03-11T17:37:17.866Z,0.50
2023-03-11T17:39:47.019Z,0.35
2023-03-11T17:42:15.956Z,0.47
2023-03-11T17:44:51.338Z,0.52
2023-03-11T17:47:26.213Z,0.12
2023-03-11T17:49:55.115Z,0.10
2023-03-11T17:52:24.072Z,0.26
2023-03-11T17:54:53.669Z,0.22
2023-03-11T17:57:22.626Z,0.39
2023-03-11T17:59:53.098Z,0.39
2023-03-11T18:02:23.524Z,0.85
2023-03-11T18:04:53.942Z,0.98
2023-03-11T18:07:23.874Z,1.02
2023-03-11T18:09:53.855Z,0.26
2023-03-11T18:12:23.115Z,0.39
2023-03-11T18:14:51.965Z,0.68
2023-03-11T18:17:22.306Z,0.75
2023-03-11T18:19:50.766Z,0.61
2023-03-11T18:22:19.619Z,0.58
2023-03-11T18:24:48.605Z,0.84
2023-03-11T18:27:17.405Z,0.38
2023-03-11T18:29:46.382Z,0.44
2023-03-11T18:32:15.339Z,0.14
2023-03-11T18:34:45.444Z,0.23
2023-03-11T18:37:14.314Z,0.13
2023-03-11T18:39:43.147Z,-0.09
2023-03-11T18:42:14.095Z,0.27
2023-03-11T18:44:43.177Z,-0.26
2023-03-11T18:47:12.116Z,-0.44
2023-03-11T18:49:40.919Z,-0.15
2023-03-11T18:52:11.336Z,0.26
2023-03-11T18:54:40.411Z,0.11
2023-03-11T18:57:09.417Z,0.17
2023-03-11T18:59:38.299Z,-0.15
2023-03-11T19:02:07.203Z,0.16
2023-03-11T19:04:35.752Z,0.45
2023-03-11T19:07:04.768Z,0.09
2023-03-11T19:09:35.188Z,0.29
2023-03-11T19:12:04.135Z,-0.05
2023-03-11T19:14:33.181Z,-0.14
2023-03-11T19:17:02.083Z,0.04
2023-03-11T19:19:31.651Z,-0.13
2023-03-11T19:22:00.564Z,0.01
2023-03-11T19:24:29.557Z,-0.37
2023-03-11T19:26:59.803Z,0.18
2023-03-11T19:29:28.824Z,-0.38
2023-03-11T19:31:57.333Z,-0.59
2023-03-11T19:34:27.254Z,-0.48
2023-03-11T19:36:56.222Z,-0.24
2023-03-11T19:39:25.777Z,-0.63
2023-03-11T19:41:55.629Z,-0.18
2023-03-11T19:44:26.006Z,-0.83
2023-03-11T19:46:54.529Z,-0.60
2023-03-11T19:49:23.419Z,-0.60
2023-03-11T19:51:54.811Z,-0.06
2023-03-11T19:54:23.824Z,-0.13
2023-03-11T19:56:52.809Z,-0.03
2023-03-11T19:59:21.727Z,-0.37
2023-03-11T20:01:51.731Z,-0.66
2023-03-11T20:04:20.795Z,-0.26
2023-03-11T20:06:50.137Z,-0.29
2023-03-11T20:09:19.162Z,-0.64
2023-03-11T20:11:48.210Z,-0.69
2023-03-11T20:14:17.103Z,-0.79
2023-03-11T20:16:45.700Z,-0.64
2023-03-11T20:19:16.167Z,-0.72
2023-03-11T20:21:46.057Z,-0.25
2023-03-11T20:24:14.876Z,-0.40
2023-03-11T20:26:43.980Z,-0.52
2023-03-11T20:29:12.858Z,-0.47
2023-03-11T20:31:41.928Z,-0.30
2023-03-11T20:34:11.098Z,-0.63
2023-03-11T20:36:41.621Z,-0.29
2023-03-11T20:39:10.878Z,-0.69
2023-03-11T20:41:41.995Z,-0.83
2023-03-11T20:44:14.396Z,-0.55
2023-03-11T20:46:43.572Z,-1.09
2023-03-11T20:49:12.835Z,-0.69
2023-03-11T20:51:44.200Z,-0.34
2023-03-11T20:54:13.136Z,-0.57
2023-03-11T20:56:42.182Z,-0.65
2023-03-11T20:59:12.573Z,-0.29
2023-03-11T21:01:41.379Z,-0.57
2023-03-11T21:04:10.313Z,-0.70
2023-03-11T21:06:42.987Z,-0.38
2023-03-11T21:09:15.448Z,-0.22
2023-03-11T21:11:44.380Z,-0.64
2023-03-11T21:14:16.242Z,-0.50
2023-03-11T21:16:45.366Z,-0.44
2023-03-11T21:19:14.876Z,-0.45
2023-03-11T21:21:44.321Z,-0.34
2023-03-11T21:24:14.660Z,-0.19
2023-03-11T21:26:44.433Z,-0.25
2023-03-11T21:29:14.076Z,-0.45
2023-03-11T21:31:42.954Z,-0.69
2023-03-11T21:34:12.419Z,-0.39
2023-03-11T21:36:41.843Z,-0.47
2023-03-11T21:39:10.724Z,-1.10
2023-03-11T21:41:41.188Z,-0.32
2023-03-11T21:44:10.228Z,-0.50
2023-03-11T21:46:38.930Z,-0.39
2023-03-11T21:49:07.943Z,-0.30
2023-03-11T21:51:36.935Z,-0.42
2023-03-11T21:54:06.492Z,-0.43
2023-03-11T21:56:35.611Z,-0.00
2023-03-11T21:59:06.202Z,-0.22
2023-03-11T22:01:34.841Z,-0.02
2023-03-11T22:04:04.227Z,0.33
2023-03-11T22:06:33.619Z,-0.05
2023-03-11T22:09:03.120Z,-0.31
2023-03-11T22:11:32.177Z,-0.83
2023-03-11T22:14:01.570Z,-0.17
2023-03-11T22:16:34.492Z,0.20
2023-03-11T22:19:06.167Z,0.05
2023-03-11T22:21:35.335Z,-0.37
2023-03-11T22:24:04.308Z,-0.11
2023-03-11T22:26:33.294Z,-0.75
2023-03-11T22:29:04.166Z,-0.52
2023-03-11T22:31:34.435Z,-0.33
2023-03-11T22:34:03.467Z,-0.34
2023-03-11T22:36:32.308Z,-0.32
2023-03-11T22:39:02.686Z,-0.32
2023-03-11T22:41:31.761Z,-0.89
2023-03-11T22:44:00.711Z,-0.89
2023-03-11T22:46:29.237Z,-0.86
2023-03-11T22:48:59.521Z,-0.90
2023-03-11T22:51:28.417Z,-1.02
2023-03-11T22:53:57.292Z,-0.83
2023-03-11T22:56:26.340Z,-1.14
2023-03-11T22:58:54.899Z,-1.12
2023-03-11T23:01:23.850Z,-0.74
2023-03-11T23:03:53.103Z,-0.69
2023-03-11T23:06:24.443Z,-0.67
2023-03-11T23:08:53.354Z,-0.99
2023-03-11T23:11:23.446Z,-0.85
2023-03-11T23:13:52.031Z,-1.00
2023-03-11T23:16:22.600Z,-1.20
2023-03-11T23:18:53.019Z,-0.79
2023-03-11T23:21:25.573Z,-0.70
2023-03-11T23:23:54.984Z,-0.60
2023-03-11T23:26:24.431Z,-1.24
2023-03-11T23:28:53.703Z,-1.27
2023-03-11T23:31:24.065Z,-0.79
2023-03-11T23:33:53.366Z,-1.25
2023-03-11T23:36:27.171Z,-1.08
2023-03-11T23:38:56.062Z,-1.17
2023-03-11T23:41:24.977Z,-0.69
2023-03-11T23:43:53.708Z,-1.02
2023-03-11T23:46:22.683Z,-1.11
2023-03-11T23:48:51.851Z,-1.12
2023-03-11T23:51:20.780Z,-1.15
2023-03-11T23:53:51.080Z,-0.70
2023-03-11T23:56:20.402Z,-1.25
2023-03-11T23:58:48.944Z,-0.75
